NZAAYSNF

Guest
Details From NZAA - Auckland International
To YSNF - Norfolk Island Intl
Flight Number -
Tags Generated
Created
Modified
Stats Distance 589 nm / 1,091 km
Max Altitude 0 ft / 0 m
Waypoints 3
Social Downloads 3
Likes 0
Share VATSIM

Download

Looking for another format? Having issues loading an existing format? Contact us
Advertisement - Login to hide

Notes

Generated

Route

NZAA NF YSNF

ID Type Via Altitude Latitude Longitude Leg Dist Tot Dist Heading (true) Name
O NZAA APT - 0 ft / 0 m -37.01438˚ 174.77090˚ - 0 nm - -
NF VOR - 0 ft / 0 m -29.04733˚ 167.93217˚ 589 nm 589 nm 322° / 326° NORFOLK ISLAND VOR-DME
O YSNF APT - 0 ft / 0 m -29.04738˚ 167.93255˚ 0 nm 589 nm 98° / 98° -

Altitude Profile

Advertisement - Login to hide

Weather


0- 5 10 15 20 25 30 35+ Temperature / ° C

Clouds and Precipitation
Forecast for 2018-05-27 00:00 UTC. Updated 4 hours ago

Ground ~20,000 ft ~40,000 ft Winds

NZAA

Details ICAO NZAA (AKL)
Name Auckland International
Region New Zealand and Antarctica
Timezone Pacific/Auckland (UTC+12.0)
Stats Elevation 23 ft / 7 m (AMSL)
Location -37.010794° 174.787331°
Runways 2
Magnetic Variation 19.857° E

METAR

NZAA 270330Z AUTO 24013KT 9999 -RA FEW027/// BKN060/// OVC100/// 13/10 Q1009 TEMPO 4000 SHRA SCT020CB

Decode

TAF

TAF AMD NZAA 262107Z 2621/2718 25015G25KT 9999 -SHRA FEW018 BKN035 TEMPO 2622/2707 4000 SHRA SCT020TCU BECMG 2705/2707 24015KT TEMPO 2707/2710 6000 SHRA BECMG 2709/2711 18005KT

Decode

Departure Runways

ID Width Length Bearing (true) Bearing (mag) Surface Threshold Offset Overrun Length
05L 157 ft / 48 m 10,844 ft / 3,305 m 70.91° 51.05° Concrete 1,240 ft / 378 m 460 ft / 140 m
05R 152 ft / 46 m 12,085 ft / 3,684 m 70.96° 51.10° Concrete 1,270 ft / 387 m 0 ft / 0 m
23L 152 ft / 46 m 12,085 ft / 3,684 m 250.94° 231.08° Concrete 0 ft / 0 m 0 ft / 0 m
23R 157 ft / 48 m 10,844 ft / 3,305 m 250.89° 231.03° Concrete 1,060 ft / 323 m 0 ft / 0 m

YSNF

Details ICAO YSNF (NLK)
Name Norfolk Island Intl
Region Australia
Timezone Pacific/Norfolk (UTC+11.0)
Stats Elevation 371 ft / 113 m (AMSL)
Location -29.042060° 167.938575°
Runways 2
Magnetic Variation 14.991° E

METAR

YSNF 270300Z AUTO 17009KT //// // BKN037 OVC042 18/11 Q1021

Decode

TAF

TAF YSNF 262311Z 2700/2724 17010KT 9999 -SHRA SCT030 BKN045 BECMG 2712/2714 20010KT 9999 -SHRA SCT020 BKN040

Decode

Destination Runways

ID Width Length Bearing (true) Bearing (mag) Surface Threshold Offset Overrun Length
04 98 ft / 30 m 5,115 ft / 1,559 m 49.90° 34.91° Asphalt 397 ft / 121 m 0 ft / 0 m
11 151 ft / 46 m 6,588 ft / 2,008 m 122.24° 107.25° Asphalt 197 ft / 60 m 0 ft / 0 m
22 98 ft / 30 m 5,115 ft / 1,559 m 229.90° 214.91° Asphalt 0 ft / 0 m 0 ft / 0 m
29 151 ft / 46 m 6,588 ft / 2,008 m 302.23° 287.24° Asphalt 197 ft / 60 m 0 ft / 0 m

Popular Alternatives